sensor_id;sensor_type;location;lat;lon;timestamp;P1;durP1;ratioP1;P2;durP2;ratioP2
12631;SDS011;6381;45.748;12.106;2023-03-23T00:01:23;23.37;;;20.93;;
12631;SDS011;6381;45.748;12.106;2023-03-23T00:03:53;24.93;;;22.33;;
12631;SDS011;6381;45.748;12.106;2023-03-23T00:06:24;24.20;;;21.80;;
12631;SDS011;6381;45.748;12.106;2023-03-23T00:08:53;24.20;;;21.80;;
12631;SDS011;6381;45.748;12.106;2023-03-23T00:11:26;24.87;;;22.30;;
12631;SDS011;6381;45.748;12.106;2023-03-23T00:13:59;25.90;;;23.20;;
12631;SDS011;6381;45.748;12.106;2023-03-23T00:16:29;28.13;;;23.93;;
12631;SDS011;6381;45.748;12.106;2023-03-23T00:18:58;26.77;;;24.00;;
12631;SDS011;6381;45.748;12.106;2023-03-23T00:21:28;26.80;;;23.87;;
12631;SDS011;6381;45.748;12.106;2023-03-23T00:24:02;28.23;;;25.33;;
12631;SDS011;6381;45.748;12.106;2023-03-23T00:26:32;28.97;;;25.43;;
12631;SDS011;6381;45.748;12.106;2023-03-23T00:29:04;28.00;;;25.10;;
12631;SDS011;6381;45.748;12.106;2023-03-23T00:31:33;28.27;;;25.37;;
12631;SDS011;6381;45.748;12.106;2023-03-23T00:34:04;26.33;;;23.63;;
12631;SDS011;6381;45.748;12.106;2023-03-23T00:36:34;27.33;;;24.63;;
12631;SDS011;6381;45.748;12.106;2023-03-23T00:39:11;28.67;;;25.73;;
12631;SDS011;6381;45.748;12.106;2023-03-23T00:41:42;27.70;;;25.00;;
12631;SDS011;6381;45.748;12.106;2023-03-23T00:44:13;25.13;;;22.50;;
12631;SDS011;6381;45.748;12.106;2023-03-23T00:46:43;28.10;;;25.20;;
12631;SDS011;6381;45.748;12.106;2023-03-23T00:49:12;30.10;;;25.43;;
12631;SDS011;6381;45.748;12.106;2023-03-23T00:51:42;29.73;;;26.43;;
12631;SDS011;6381;45.748;12.106;2023-03-23T00:54:11;29.73;;;25.97;;
12631;SDS011;6381;45.748;12.106;2023-03-23T00:56:40;28.13;;;25.33;;
12631;SDS011;6381;45.748;12.106;2023-03-23T00:59:09;28.23;;;25.43;;
12631;SDS011;6381;45.748;12.106;2023-03-23T01:01:39;28.37;;;25.40;;
12631;SDS011;6381;45.748;12.106;2023-03-23T01:04:08;29.37;;;26.43;;
12631;SDS011;6381;45.748;12.106;2023-03-23T01:06:39;28.73;;;25.80;;
12631;SDS011;6381;45.748;12.106;2023-03-23T01:09:09;27.73;;;24.93;;
12631;SDS011;6381;45.748;12.106;2023-03-23T01:11:40;28.00;;;25.07;;
12631;SDS011;6381;45.748;12.106;2023-03-23T01:14:11;26.67;;;23.97;;
12631;SDS011;6381;45.748;12.106;2023-03-23T01:16:43;26.67;;;24.07;;
12631;SDS011;6381;45.748;12.106;2023-03-23T01:19:12;26.40;;;23.77;;
12631;SDS011;6381;45.748;12.106;2023-03-23T01:21:43;27.53;;;24.30;;
12631;SDS011;6381;45.748;12.106;2023-03-23T01:24:11;27.23;;;24.50;;
12631;SDS011;6381;45.748;12.106;2023-03-23T01:26:40;27.77;;;24.93;;
12631;SDS011;6381;45.748;12.106;2023-03-23T01:29:09;27.73;;;24.90;;
12631;SDS011;6381;45.748;12.106;2023-03-23T01:31:38;26.23;;;23.43;;
12631;SDS011;6381;45.748;12.106;2023-03-23T01:34:13;27.73;;;25.03;;
12631;SDS011;6381;45.748;12.106;2023-03-23T01:36:42;27.77;;;24.87;;
12631;SDS011;6381;45.748;12.106;2023-03-23T01:39:10;27.37;;;24.53;;
12631;SDS011;6381;45.748;12.106;2023-03-23T01:41:39;29.13;;;24.77;;
12631;SDS011;6381;45.748;12.106;2023-03-23T01:47:14;20.57;;;18.57;;
12631;SDS011;6381;45.748;12.106;2023-03-23T01:49:46;19.80;;;17.83;;
12631;SDS011;6381;45.748;12.106;2023-03-23T01:52:18;18.70;;;16.80;;
12631;SDS011;6381;45.748;12.106;2023-03-23T01:54:52;18.00;;;16.30;;
12631;SDS011;6381;45.748;12.106;2023-03-23T01:57:23;18.70;;;16.80;;
12631;SDS011;6381;45.748;12.106;2023-03-23T01:59:57;18.83;;;16.90;;
12631;SDS011;6381;45.748;12.106;2023-03-23T02:02:50;20.67;;;17.27;;
12631;SDS011;6381;45.748;12.106;2023-03-23T02:05:24;20.50;;;18.40;;
12631;SDS011;6381;45.748;12.106;2023-03-23T02:08:02;21.40;;;19.17;;
12631;SDS011;6381;45.748;12.106;2023-03-23T02:10:35;22.87;;;20.53;;
12631;SDS011;6381;45.748;12.106;2023-03-23T02:13:06;24.27;;;21.87;;
12631;SDS011;6381;45.748;12.106;2023-03-23T02:15:39;25.20;;;22.37;;
12631;SDS011;6381;45.748;12.106;2023-03-23T02:18:28;25.40;;;22.67;;
12631;SDS011;6381;45.748;12.106;2023-03-23T02:21:16;26.83;;;24.13;;
12631;SDS011;6381;45.748;12.106;2023-03-23T02:27:20;28.00;;;25.00;;
12631;SDS011;6381;45.748;12.106;2023-03-23T02:30:11;28.20;;;25.30;;
12631;SDS011;6381;45.748;12.106;2023-03-23T02:35:56;28.10;;;25.10;;
12631;SDS011;6381;45.748;12.106;2023-03-23T02:38:30;28.73;;;25.30;;
12631;SDS011;6381;45.748;12.106;2023-03-23T02:41:01;27.80;;;24.87;;
12631;SDS011;6381;45.748;12.106;2023-03-23T02:43:33;26.90;;;24.00;;
12631;SDS011;6381;45.748;12.106;2023-03-23T02:46:08;25.53;;;22.80;;
12631;SDS011;6381;45.748;12.106;2023-03-23T02:48:40;25.77;;;22.07;;
12631;SDS011;6381;45.748;12.106;2023-03-23T02:51:10;24.47;;;21.97;;
12631;SDS011;6381;45.748;12.106;2023-03-23T02:53:41;23.93;;;21.33;;
12631;SDS011;6381;45.748;12.106;2023-03-23T02:56:12;23.97;;;21.40;;
12631;SDS011;6381;45.748;12.106;2023-03-23T02:58:42;23.73;;;21.30;;
12631;SDS011;6381;45.748;12.106;2023-03-23T03:01:14;25.97;;;22.30;;
12631;SDS011;6381;45.748;12.106;2023-03-23T03:04:03;24.90;;;22.23;;
12631;SDS011;6381;45.748;12.106;2023-03-23T03:06:36;25.03;;;22.47;;
12631;SDS011;6381;45.748;12.106;2023-03-23T03:09:12;24.97;;;22.57;;
12631;SDS011;6381;45.748;12.106;2023-03-23T03:11:46;26.77;;;23.87;;
12631;SDS011;6381;45.748;12.106;2023-03-23T03:14:19;25.10;;;22.50;;
12631;SDS011;6381;45.748;12.106;2023-03-23T03:16:53;25.47;;;22.77;;
12631;SDS011;6381;45.748;12.106;2023-03-23T03:19:29;29.10;;;25.20;;
12631;SDS011;6381;45.748;12.106;2023-03-23T03:22:01;28.57;;;25.53;;
12631;SDS011;6381;45.748;12.106;2023-03-23T03:24:39;27.13;;;24.27;;
12631;SDS011;6381;45.748;12.106;2023-03-23T03:27:12;29.90;;;26.40;;
12631;SDS011;6381;45.748;12.106;2023-03-23T03:29:47;26.73;;;23.93;;
12631;SDS011;6381;45.748;12.106;2023-03-23T03:32:21;28.83;;;25.80;;
12631;SDS011;6381;45.748;12.106;2023-03-23T03:34:55;26.10;;;23.37;;
12631;SDS011;6381;45.748;12.106;2023-03-23T03:37:26;28.57;;;25.67;;
12631;SDS011;6381;45.748;12.106;2023-03-23T03:39:59;29.47;;;26.37;;
12631;SDS011;6381;45.748;12.106;2023-03-23T03:42:29;30.10;;;26.97;;
12631;SDS011;6381;45.748;12.106;2023-03-23T03:44:58;30.50;;;27.40;;
12631;SDS011;6381;45.748;12.106;2023-03-23T03:47:27;30.37;;;27.30;;
12631;SDS011;6381;45.748;12.106;2023-03-23T03:49:58;32.27;;;28.07;;
12631;SDS011;6381;45.748;12.106;2023-03-23T03:52:27;31.53;;;28.33;;
12631;SDS011;6381;45.748;12.106;2023-03-23T03:54:58;31.37;;;28.03;;
12631;SDS011;6381;45.748;12.106;2023-03-23T03:57:29;31.93;;;28.63;;
12631;SDS011;6381;45.748;12.106;2023-03-23T04:00:31;32.37;;;29.07;;
12631;SDS011;6381;45.748;12.106;2023-03-23T04:02:59;33.93;;;30.23;;
12631;SDS011;6381;45.748;12.106;2023-03-23T04:05:44;33.90;;;30.07;;
12631;SDS011;6381;45.748;12.106;2023-03-23T04:08:13;35.77;;;32.23;;
12631;SDS011;6381;45.748;12.106;2023-03-23T04:10:42;35.03;;;31.37;;
12631;SDS011;6381;45.748;12.106;2023-03-23T04:13:12;38.10;;;33.93;;
12631;SDS011;6381;45.748;12.106;2023-03-23T04:16:00;38.57;;;34.13;;
12631;SDS011;6381;45.748;12.106;2023-03-23T04:18:31;38.77;;;34.67;;
12631;SDS011;6381;45.748;12.106;2023-03-23T04:21:02;40.13;;;36.07;;
12631;SDS011;6381;45.748;12.106;2023-03-23T04:23:34;42.77;;;38.17;;
12631;SDS011;6381;45.748;12.106;2023-03-23T04:26:06;44.67;;;38.70;;
12631;SDS011;6381;45.748;12.106;2023-03-23T04:28:46;45.67;;;40.67;;
12631;SDS011;6381;45.748;12.106;2023-03-23T04:31:48;44.87;;;40.17;;
12631;SDS011;6381;45.748;12.106;2023-03-23T04:34:28;45.10;;;40.23;;
12631;SDS011;6381;45.748;12.106;2023-03-23T04:37:01;47.07;;;42.00;;
12631;SDS011;6381;45.748;12.106;2023-03-23T04:39:32;47.03;;;42.17;;
12631;SDS011;6381;45.748;12.106;2023-03-23T04:42:03;47.43;;;42.33;;
12631;SDS011;6381;45.748;12.106;2023-03-23T04:45:01;46.73;;;41.73;;
12631;SDS011;6381;45.748;12.106;2023-03-23T04:47:36;48.87;;;43.77;;
12631;SDS011;6381;45.748;12.106;2023-03-23T04:50:17;51.07;;;45.57;;
12631;SDS011;6381;45.748;12.106;2023-03-23T04:52:48;51.70;;;46.27;;
12631;SDS011;6381;45.748;12.106;2023-03-23T04:55:18;53.57;;;47.37;;
12631;SDS011;6381;45.748;12.106;2023-03-23T04:57:54;54.60;;;48.90;;
12631;SDS011;6381;45.748;12.106;2023-03-23T05:00:33;55.43;;;49.47;;
12631;SDS011;6381;45.748;12.106;2023-03-23T05:03:04;56.00;;;50.07;;
12631;SDS011;6381;45.748;12.106;2023-03-23T05:05:33;58.03;;;51.77;;
12631;SDS011;6381;45.748;12.106;2023-03-23T05:08:07;56.10;;;50.10;;
12631;SDS011;6381;45.748;12.106;2023-03-23T05:10:39;56.53;;;50.57;;
12631;SDS011;6381;45.748;12.106;2023-03-23T05:13:12;58.43;;;52.03;;
12631;SDS011;6381;45.748;12.106;2023-03-23T05:15:42;58.37;;;51.90;;
12631;SDS011;6381;45.748;12.106;2023-03-23T05:18:11;56.37;;;50.40;;
12631;SDS011;6381;45.748;12.106;2023-03-23T05:20:45;55.60;;;49.80;;
12631;SDS011;6381;45.748;12.106;2023-03-23T05:23:22;58.13;;;51.80;;
12631;SDS011;6381;45.748;12.106;2023-03-23T05:25:58;58.97;;;52.77;;
12631;SDS011;6381;45.748;12.106;2023-03-23T05:28:29;57.70;;;51.50;;
12631;SDS011;6381;45.748;12.106;2023-03-23T05:31:09;58.37;;;52.17;;
12631;SDS011;6381;45.748;12.106;2023-03-23T05:33:37;56.93;;;50.90;;
12631;SDS011;6381;45.748;12.106;2023-03-23T05:36:20;56.23;;;50.40;;
12631;SDS011;6381;45.748;12.106;2023-03-23T05:39:24;59.13;;;51.83;;
12631;SDS011;6381;45.748;12.106;2023-03-23T05:42:08;59.63;;;52.87;;
12631;SDS011;6381;45.748;12.106;2023-03-23T05:44:47;58.47;;;52.13;;
12631;SDS011;6381;45.748;12.106;2023-03-23T05:47:16;59.00;;;52.17;;
12631;SDS011;6381;45.748;12.106;2023-03-23T05:49:51;59.70;;;52.23;;
12631;SDS011;6381;45.748;12.106;2023-03-23T05:52:23;55.57;;;49.73;;
12631;SDS011;6381;45.748;12.106;2023-03-23T05:54:54;59.17;;;52.77;;
12631;SDS011;6381;45.748;12.106;2023-03-23T05:57:24;58.70;;;52.40;;
12631;SDS011;6381;45.748;12.106;2023-03-23T06:00:03;57.83;;;51.57;;
12631;SDS011;6381;45.748;12.106;2023-03-23T06:02:41;59.20;;;52.73;;
12631;SDS011;6381;45.748;12.106;2023-03-23T06:05:17;58.57;;;52.30;;
12631;SDS011;6381;45.748;12.106;2023-03-23T06:07:53;59.97;;;53.70;;
12631;SDS011;6381;45.748;12.106;2023-03-23T06:10:24;61.77;;;53.70;;
12631;SDS011;6381;45.748;12.106;2023-03-23T06:12:58;59.73;;;53.20;;
12631;SDS011;6381;45.748;12.106;2023-03-23T06:15:32;59.43;;;52.90;;
12631;SDS011;6381;45.748;12.106;2023-03-23T06:18:06;61.73;;;53.33;;
12631;SDS011;6381;45.748;12.106;2023-03-23T06:20:54;58.37;;;52.17;;
12631;SDS011;6381;45.748;12.106;2023-03-23T06:23:39;62.83;;;55.20;;
12631;SDS011;6381;45.748;12.106;2023-03-23T06:26:09;61.97;;;55.17;;
12631;SDS011;6381;45.748;12.106;2023-03-23T06:28:44;58.80;;;52.63;;
12631;SDS011;6381;45.748;12.106;2023-03-23T06:31:13;68.53;;;60.33;;
12631;SDS011;6381;45.748;12.106;2023-03-23T06:33:43;63.13;;;55.67;;
12631;SDS011;6381;45.748;12.106;2023-03-23T06:36:35;61.00;;;54.30;;
12631;SDS011;6381;45.748;12.106;2023-03-23T06:39:10;61.00;;;54.60;;
12631;SDS011;6381;45.748;12.106;2023-03-23T06:41:56;60.23;;;53.87;;
12631;SDS011;6381;45.748;12.106;2023-03-23T06:44:28;64.50;;;56.53;;
12631;SDS011;6381;45.748;12.106;2023-03-23T06:46:57;63.13;;;56.33;;
12631;SDS011;6381;45.748;12.106;2023-03-23T06:49:33;61.23;;;54.67;;
12631;SDS011;6381;45.748;12.106;2023-03-23T06:52:13;62.27;;;55.70;;
12631;SDS011;6381;45.748;12.106;2023-03-23T06:54:42;64.77;;;58.00;;
12631;SDS011;6381;45.748;12.106;2023-03-23T06:57:14;73.87;;;65.40;;
12631;SDS011;6381;45.748;12.106;2023-03-23T06:59:45;73.50;;;65.47;;
12631;SDS011;6381;45.748;12.106;2023-03-23T07:02:14;77.23;;;68.53;;
12631;SDS011;6381;45.748;12.106;2023-03-23T07:04:46;78.40;;;67.67;;
12631;SDS011;6381;45.748;12.106;2023-03-23T07:07:19;78.30;;;67.97;;
12631;SDS011;6381;45.748;12.106;2023-03-23T07:09:53;70.50;;;62.40;;
12631;SDS011;6381;45.748;12.106;2023-03-23T07:12:25;63.97;;;57.03;;
12631;SDS011;6381;45.748;12.106;2023-03-23T07:14:55;59.50;;;53.03;;
12631;SDS011;6381;45.748;12.106;2023-03-23T07:17:24;57.90;;;51.67;;
12631;SDS011;6381;45.748;12.106;2023-03-23T07:20:10;60.87;;;54.37;;
12631;SDS011;6381;45.748;12.106;2023-03-23T07:22:41;61.07;;;52.23;;
12631;SDS011;6381;45.748;12.106;2023-03-23T07:25:20;59.63;;;53.07;;
12631;SDS011;6381;45.748;12.106;2023-03-23T07:27:54;58.30;;;50.53;;
12631;SDS011;6381;45.748;12.106;2023-03-23T07:30:22;59.77;;;50.53;;
12631;SDS011;6381;45.748;12.106;2023-03-23T07:32:52;55.03;;;49.33;;
12631;SDS011;6381;45.748;12.106;2023-03-23T07:35:20;58.50;;;52.23;;
12631;SDS011;6381;45.748;12.106;2023-03-23T07:38:03;57.20;;;50.93;;
12631;SDS011;6381;45.748;12.106;2023-03-23T07:40:34;57.50;;;49.67;;
12631;SDS011;6381;45.748;12.106;2023-03-23T07:43:22;54.23;;;48.40;;
12631;SDS011;6381;45.748;12.106;2023-03-23T07:45:52;52.70;;;46.67;;
12631;SDS011;6381;45.748;12.106;2023-03-23T07:48:24;51.20;;;45.90;;
12631;SDS011;6381;45.748;12.106;2023-03-23T07:50:52;54.10;;;48.23;;
12631;SDS011;6381;45.748;12.106;2023-03-23T07:53:21;51.83;;;46.33;;
12631;SDS011;6381;45.748;12.106;2023-03-23T07:55:57;50.83;;;45.43;;
12631;SDS011;6381;45.748;12.106;2023-03-23T07:59:03;52.53;;;46.63;;
12631;SDS011;6381;45.748;12.106;2023-03-23T08:01:33;55.53;;;47.50;;
12631;SDS011;6381;45.748;12.106;2023-03-23T08:04:20;50.77;;;45.07;;
12631;SDS011;6381;45.748;12.106;2023-03-23T08:07:25;50.27;;;44.90;;
12631;SDS011;6381;45.748;12.106;2023-03-23T08:10:12;52.10;;;46.03;;
12631;SDS011;6381;45.748;12.106;2023-03-23T08:13:06;52.63;;;45.87;;
12631;SDS011;6381;45.748;12.106;2023-03-23T08:15:55;51.83;;;44.80;;
12631;SDS011;6381;45.748;12.106;2023-03-23T08:18:51;55.10;;;46.47;;
12631;SDS011;6381;45.748;12.106;2023-03-23T08:21:42;49.67;;;43.63;;
12631;SDS011;6381;45.748;12.106;2023-03-23T08:24:34;54.17;;;45.73;;
12631;SDS011;6381;45.748;12.106;2023-03-23T08:27:14;50.43;;;45.00;;
12631;SDS011;6381;45.748;12.106;2023-03-23T08:30:06;50.33;;;45.17;;
12631;SDS011;6381;45.748;12.106;2023-03-23T08:33:16;51.03;;;43.90;;
12631;SDS011;6381;45.748;12.106;2023-03-23T08:36:08;47.87;;;42.87;;
12631;SDS011;6381;45.748;12.106;2023-03-23T08:38:57;49.67;;;44.37;;
12631;SDS011;6381;45.748;12.106;2023-03-23T08:41:44;46.27;;;41.43;;
12631;SDS011;6381;45.748;12.106;2023-03-23T08:44:31;47.10;;;42.07;;
12631;SDS011;6381;45.748;12.106;2023-03-23T08:47:27;48.97;;;43.77;;
12631;SDS011;6381;45.748;12.106;2023-03-23T08:50:24;47.50;;;42.40;;
12631;SDS011;6381;45.748;12.106;2023-03-23T08:53:00;47.70;;;42.70;;
12631;SDS011;6381;45.748;12.106;2023-03-23T08:55:34;48.20;;;43.00;;
12631;SDS011;6381;45.748;12.106;2023-03-23T08:58:21;45.80;;;40.90;;
12631;SDS011;6381;45.748;12.106;2023-03-23T09:01:15;49.47;;;44.10;;
12631;SDS011;6381;45.748;12.106;2023-03-23T09:03:57;49.83;;;44.53;;
12631;SDS011;6381;45.748;12.106;2023-03-23T09:06:48;49.28;;;44.17;;
12631;SDS011;6381;45.748;12.106;2023-03-23T09:09:17;48.00;;;42.90;;
12631;SDS011;6381;45.748;12.106;2023-03-23T09:11:46;51.97;;;45.03;;
12631;SDS011;6381;45.748;12.106;2023-03-23T09:14:15;50.83;;;45.20;;
12631;SDS011;6381;45.748;12.106;2023-03-23T09:16:43;60.58;;;48.67;;
12631;SDS011;6381;45.748;12.106;2023-03-23T09:19:12;50.07;;;44.60;;
12631;SDS011;6381;45.748;12.106;2023-03-23T09:21:41;54.13;;;47.45;;
12631;SDS011;6381;45.748;12.106;2023-03-23T09:24:13;58.67;;;45.90;;
12631;SDS011;6381;45.748;12.106;2023-03-23T09:26:41;50.47;;;44.33;;
12631;SDS011;6381;45.748;12.106;2023-03-23T09:29:10;51.60;;;45.93;;
12631;SDS011;6381;45.748;12.106;2023-03-23T09:31:39;51.77;;;44.83;;
12631;SDS011;6381;45.748;12.106;2023-03-23T09:34:08;51.80;;;45.40;;
12631;SDS011;6381;45.748;12.106;2023-03-23T09:36:37;54.45;;;48.75;;
12631;SDS011;6381;45.748;12.106;2023-03-23T09:39:06;49.80;;;44.38;;
12631;SDS011;6381;45.748;12.106;2023-03-23T09:44:36;58.15;;;44.78;;
12631;SDS011;6381;45.748;12.106;2023-03-23T09:47:13;50.17;;;43.95;;
12631;SDS011;6381;45.748;12.106;2023-03-23T09:49:50;53.33;;;44.78;;
12631;SDS011;6381;45.748;12.106;2023-03-23T09:52:22;46.10;;;40.83;;
12631;SDS011;6381;45.748;12.106;2023-03-23T09:55:04;42.65;;;38.00;;
12631;SDS011;6381;45.748;12.106;2023-03-23T09:57:36;37.42;;;33.53;;
12631;SDS011;6381;45.748;12.106;2023-03-23T10:00:10;44.63;;;38.60;;
12631;SDS011;6381;45.748;12.106;2023-03-23T10:02:45;40.90;;;34.17;;
12631;SDS011;6381;45.748;12.106;2023-03-23T10:05:27;37.58;;;33.53;;
12631;SDS011;6381;45.748;12.106;2023-03-23T10:08:00;41.42;;;35.65;;
12631;SDS011;6381;45.748;12.106;2023-03-23T10:10:31;39.33;;;34.53;;
12631;SDS011;6381;45.748;12.106;2023-03-23T10:13:09;44.22;;;35.60;;
12631;SDS011;6381;45.748;12.106;2023-03-23T10:15:47;39.22;;;35.00;;
12631;SDS011;6381;45.748;12.106;2023-03-23T10:18:19;45.67;;;35.45;;
12631;SDS011;6381;45.748;12.106;2023-03-23T10:20:53;44.03;;;32.38;;
12631;SDS011;6381;45.748;12.106;2023-03-23T10:23:35;30.85;;;26.98;;
12631;SDS011;6381;45.748;12.106;2023-03-23T10:26:28;37.85;;;32.53;;
12631;SDS011;6381;45.748;12.106;2023-03-23T10:29:14;30.65;;;26.95;;
12631;SDS011;6381;45.748;12.106;2023-03-23T10:31:47;28.88;;;25.73;;
12631;SDS011;6381;45.748;12.106;2023-03-23T10:34:23;28.45;;;25.42;;
12631;SDS011;6381;45.748;12.106;2023-03-23T10:36:59;26.60;;;23.83;;
12631;SDS011;6381;45.748;12.106;2023-03-23T10:39:33;28.15;;;24.70;;
12631;SDS011;6381;45.748;12.106;2023-03-23T10:42:12;25.50;;;22.83;;
12631;SDS011;6381;45.748;12.106;2023-03-23T10:44:50;27.73;;;24.83;;
12631;SDS011;6381;45.748;12.106;2023-03-23T10:47:19;28.15;;;25.25;;
12631;SDS011;6381;45.748;12.106;2023-03-23T10:49:48;31.20;;;26.67;;
12631;SDS011;6381;45.748;12.106;2023-03-23T10:52:25;22.67;;;20.38;;
12631;SDS011;6381;45.748;12.106;2023-03-23T10:55:00;26.60;;;23.08;;
12631;SDS011;6381;45.748;12.106;2023-03-23T10:57:32;21.95;;;19.63;;
12631;SDS011;6381;45.748;12.106;2023-03-23T11:00:05;22.33;;;19.90;;
12631;SDS011;6381;45.748;12.106;2023-03-23T11:02:44;22.88;;;20.33;;
12631;SDS011;6381;45.748;12.106;2023-03-23T11:05:16;17.20;;;15.55;;
12631;SDS011;6381;45.748;12.106;2023-03-23T11:07:49;19.88;;;16.15;;
12631;SDS011;6381;45.748;12.106;2023-03-23T11:10:22;23.20;;;20.88;;
12631;SDS011;6381;45.748;12.106;2023-03-23T11:12:53;23.83;;;21.27;;
12631;SDS011;6381;45.748;12.106;2023-03-23T11:15:32;28.88;;;22.92;;
12631;SDS011;6381;45.748;12.106;2023-03-23T11:18:03;21.75;;;19.48;;
12631;SDS011;6381;45.748;12.106;2023-03-23T11:20:35;22.63;;;16.80;;
12631;SDS011;6381;45.748;12.106;2023-03-23T11:23:09;18.50;;;16.65;;
12631;SDS011;6381;45.748;12.106;2023-03-23T11:25:52;19.33;;;17.25;;
12631;SDS011;6381;45.748;12.106;2023-03-23T11:28:26;17.65;;;15.77;;
12631;SDS011;6381;45.748;12.106;2023-03-23T11:31:00;19.50;;;17.08;;
12631;SDS011;6381;45.748;12.106;2023-03-23T11:33:34;17.27;;;14.15;;
12631;SDS011;6381;45.748;12.106;2023-03-23T11:36:06;16.92;;;13.57;;
12631;SDS011;6381;45.748;12.106;2023-03-23T11:38:36;18.08;;;14.90;;
12631;SDS011;6381;45.748;12.106;2023-03-23T11:41:09;17.02;;;14.90;;
12631;SDS011;6381;45.748;12.106;2023-03-23T11:43:39;20.10;;;17.67;;
12631;SDS011;6381;45.748;12.106;2023-03-23T11:46:15;22.45;;;19.90;;
12631;SDS011;6381;45.748;12.106;2023-03-23T11:48:54;17.80;;;16.00;;
12631;SDS011;6381;45.748;12.106;2023-03-23T11:51:30;19.13;;;17.20;;
12631;SDS011;6381;45.748;12.106;2023-03-23T11:54:06;21.63;;;19.42;;
12631;SDS011;6381;45.748;12.106;2023-03-23T11:56:43;23.98;;;21.48;;
12631;SDS011;6381;45.748;12.106;2023-03-23T11:59:13;25.35;;;22.73;;
12631;SDS011;6381;45.748;12.106;2023-03-23T12:01:50;27.70;;;24.48;;
12631;SDS011;6381;45.748;12.106;2023-03-23T12:07:37;25.83;;;23.08;;
12631;SDS011;6381;45.748;12.106;2023-03-23T12:10:19;23.20;;;20.90;;
12631;SDS011;6381;45.748;12.106;2023-03-23T12:12:57;21.13;;;19.02;;
12631;SDS011;6381;45.748;12.106;2023-03-23T12:15:34;23.00;;;19.60;;
12631;SDS011;6381;45.748;12.106;2023-03-23T12:18:15;21.63;;;17.70;;
12631;SDS011;6381;45.748;12.106;2023-03-23T12:20:55;19.15;;;17.20;;
12631;SDS011;6381;45.748;12.106;2023-03-23T12:23:33;20.90;;;18.80;;
12631;SDS011;6381;45.748;12.106;2023-03-23T12:26:18;20.05;;;17.85;;
12631;SDS011;6381;45.748;12.106;2023-03-23T12:31:54;19.00;;;17.10;;
12631;SDS011;6381;45.748;12.106;2023-03-23T12:34:36;18.17;;;16.38;;
12631;SDS011;6381;45.748;12.106;2023-03-23T12:37:16;19.23;;;17.38;;
12631;SDS011;6381;45.748;12.106;2023-03-23T12:40:05;18.35;;;16.45;;
12631;SDS011;6381;45.748;12.106;2023-03-23T12:42:51;18.98;;;16.83;;
12631;SDS011;6381;45.748;12.106;2023-03-23T12:45:43;19.75;;;17.75;;
12631;SDS011;6381;45.748;12.106;2023-03-23T12:48:31;18.73;;;16.83;;
12631;SDS011;6381;45.748;12.106;2023-03-23T12:51:08;20.20;;;18.20;;
12631;SDS011;6381;45.748;12.106;2023-03-23T12:53:44;20.10;;;17.83;;
12631;SDS011;6381;45.748;12.106;2023-03-23T12:56:20;21.33;;;19.02;;
12631;SDS011;6381;45.748;12.106;2023-03-23T12:58:53;22.00;;;18.48;;
12631;SDS011;6381;45.748;12.106;2023-03-23T13:01:28;24.00;;;20.92;;
12631;SDS011;6381;45.748;12.106;2023-03-23T13:04:01;23.77;;;20.95;;
12631;SDS011;6381;45.748;12.106;2023-03-23T13:06:36;24.77;;;20.95;;
12631;SDS011;6381;45.748;12.106;2023-03-23T13:09:09;22.60;;;20.00;;
12631;SDS011;6381;45.748;12.106;2023-03-23T13:11:42;22.40;;;20.00;;
12631;SDS011;6381;45.748;12.106;2023-03-23T13:14:15;24.30;;;20.50;;
12631;SDS011;6381;45.748;12.106;2023-03-23T13:16:54;24.33;;;20.77;;
12631;SDS011;6381;45.748;12.106;2023-03-23T13:19:30;21.98;;;19.23;;
12631;SDS011;6381;45.748;12.106;2023-03-23T13:22:19;24.30;;;20.90;;
12631;SDS011;6381;45.748;12.106;2023-03-23T13:24:52;20.67;;;18.17;;
12631;SDS011;6381;45.748;12.106;2023-03-23T13:27:23;23.60;;;18.30;;
12631;SDS011;6381;45.748;12.106;2023-03-23T13:29:53;22.27;;;19.52;;
12631;SDS011;6381;45.748;12.106;2023-03-23T13:32:29;22.45;;;20.25;;
12631;SDS011;6381;45.748;12.106;2023-03-23T13:35:02;25.05;;;22.55;;
12631;SDS011;6381;45.748;12.106;2023-03-23T13:37:34;22.95;;;20.42;;
12631;SDS011;6381;45.748;12.106;2023-03-23T13:40:15;23.60;;;21.02;;
12631;SDS011;6381;45.748;12.106;2023-03-23T13:42:52;25.17;;;22.55;;
12631;SDS011;6381;45.748;12.106;2023-03-23T13:45:23;26.50;;;23.80;;
12631;SDS011;6381;45.748;12.106;2023-03-23T13:48:04;27.15;;;24.15;;
12631;SDS011;6381;45.748;12.106;2023-03-23T13:50:49;27.35;;;22.83;;
12631;SDS011;6381;45.748;12.106;2023-03-23T13:53:25;26.52;;;23.80;;
12631;SDS011;6381;45.748;12.106;2023-03-23T13:56:13;24.50;;;21.90;;
12631;SDS011;6381;45.748;12.106;2023-03-23T13:58:47;24.95;;;22.38;;
12631;SDS011;6381;45.748;12.106;2023-03-23T14:01:18;24.33;;;21.83;;
12631;SDS011;6381;45.748;12.106;2023-03-23T14:03:59;26.45;;;23.75;;
12631;SDS011;6381;45.748;12.106;2023-03-23T14:06:33;25.55;;;22.85;;
12631;SDS011;6381;45.748;12.106;2023-03-23T14:09:15;27.88;;;24.20;;
12631;SDS011;6381;45.748;12.106;2023-03-23T14:11:47;24.63;;;22.08;;
12631;SDS011;6381;45.748;12.106;2023-03-23T14:14:20;24.23;;;21.73;;
12631;SDS011;6381;45.748;12.106;2023-03-23T14:16:53;22.65;;;20.25;;
12631;SDS011;6381;45.748;12.106;2023-03-23T14:19:37;25.83;;;23.05;;
12631;SDS011;6381;45.748;12.106;2023-03-23T14:22:16;24.65;;;22.05;;
12631;SDS011;6381;45.748;12.106;2023-03-23T14:24:48;23.27;;;20.77;;
12631;SDS011;6381;45.748;12.106;2023-03-23T14:27:20;25.35;;;22.65;;
12631;SDS011;6381;45.748;12.106;2023-03-23T14:29:57;25.23;;;22.33;;
12631;SDS011;6381;45.748;12.106;2023-03-23T14:32:27;24.70;;;22.30;;
12631;SDS011;6381;45.748;12.106;2023-03-23T14:35:00;23.60;;;21.10;;
12631;SDS011;6381;45.748;12.106;2023-03-23T14:37:35;23.48;;;21.00;;
12631;SDS011;6381;45.748;12.106;2023-03-23T14:40:08;23.83;;;19.60;;
12631;SDS011;6381;45.748;12.106;2023-03-23T14:42:41;23.27;;;20.75;;
12631;SDS011;6381;45.748;12.106;2023-03-23T14:45:12;23.85;;;21.50;;
12631;SDS011;6381;45.748;12.106;2023-03-23T14:47:43;21.85;;;19.35;;
12631;SDS011;6381;45.748;12.106;2023-03-23T14:50:23;20.83;;;18.50;;
12631;SDS011;6381;45.748;12.106;2023-03-23T14:53:00;21.75;;;19.45;;
12631;SDS011;6381;45.748;12.106;2023-03-23T14:55:41;23.52;;;21.02;;
12631;SDS011;6381;45.748;12.106;2023-03-23T14:58:15;22.83;;;20.52;;
12631;SDS011;6381;45.748;12.106;2023-03-23T15:00:47;19.77;;;17.77;;
12631;SDS011;6381;45.748;12.106;2023-03-23T15:03:20;20.33;;;17.25;;
12631;SDS011;6381;45.748;12.106;2023-03-23T15:05:51;21.90;;;19.55;;
12631;SDS011;6381;45.748;12.106;2023-03-23T15:08:24;22.00;;;19.65;;
12631;SDS011;6381;45.748;12.106;2023-03-23T15:10:59;21.70;;;19.35;;
12631;SDS011;6381;45.748;12.106;2023-03-23T15:13:34;22.45;;;19.67;;
12631;SDS011;6381;45.748;12.106;2023-03-23T15:16:04;21.85;;;18.42;;
12631;SDS011;6381;45.748;12.106;2023-03-23T15:18:44;22.25;;;19.92;;
12631;SDS011;6381;45.748;12.106;2023-03-23T15:21:21;22.42;;;19.77;;
12631;SDS011;6381;45.748;12.106;2023-03-23T15:23:52;21.50;;;18.60;;
12631;SDS011;6381;45.748;12.106;2023-03-23T15:26:28;16.33;;;14.73;;
12631;SDS011;6381;45.748;12.106;2023-03-23T15:29:04;18.55;;;16.13;;